الصفحة الرئيسية
METAR-TAF:

METAR-TAF

مطار :

Kingaroy, أستراليا

دائرة عرض: 26-34-48S, خط طول: 151-50-30E, ارتفاع: 455 متر

مراقبة الطقس الحالي

تاريخ ووقت الإصدار 54 دقيقة قبل الساعة 06:00UTC
ريح 8 عقدة من الجنوب/الجنوب الشرقي
درجة الحرارة 27°درجة مئوية
الرطوبة 20%
ضغط 1015 hPa
الرؤية 10 كم أو أكثر

METAR: YKRY 060600Z AUTO 15008KT 9999 // NCD 27/02 Q1015

زمن: 16:54 (06:54 UTC)


TAF: مفقودة

أرصاد الطقس والتوقعات من أكثر من 4000 مطار (تقارير الطقس للمطار METAR والتنبؤ بالطقس بالمطارTAF).

المحطات المتاحة هي النقط الصفراء والحمراء على الخريطة.

حرك المؤشر فوق النقطة لمعرفة اسم المحطة.

ثم انقر لمعرفة أرصاد وتوقعات الطقس.

لتغيير الخارطة: اضغط على الأزرار الخضراء مع رمز الصليب الأسود للتكبير. على الزر الأخضر مع شرطة للتصغير، أو على الأسهم الخضراء للخرائط المجاورة.


METAR-TAF: